Time;durP1;ratioP1;P1;durP2;ratioP2;P2;SDS_P1;SDS_P2;PMS_P1;PMS_P2;Temp;Humidity;BMP_temperature;BMP_pressure;BME280_temperature;BME280_humidity;BME280_pressure;Samples;Min_cycle;Max_cycle;Signal;HPM_P1;HPM_P2
2022/04/15 00:02:25;;;;;;;7.43;2.75;;;14.70;87.10;;;;;;5030808;28;20064;-54
2022/04/15 00:05:36;;;;;;;5.18;2.50;;;14.60;87.10;;;;;;5031080;28;20052;-48
2022/04/15 00:08:40;;;;;;;5.10;2.65;;;14.60;87.20;;;;;;5030770;28;20048;-48
2022/04/15 00:11:44;;;;;;;3.80;2.30;;;14.60;87.50;;;;;;5031278;28;20045;-49
2022/04/15 00:14:48;;;;;;;5.55;2.58;;;14.50;87.80;;;;;;5030240;28;20437;-49
2022/04/15 00:17:52;;;;;;;5.38;3.08;;;14.50;87.70;;;;;;5030471;28;20041;-52
2022/04/15 00:20:56;;;;;;;5.00;2.78;;;14.40;88.10;;;;;;5031086;28;20048;-49
2022/04/15 00:24:00;;;;;;;5.78;2.90;;;14.30;88.90;;;;;;5031046;28;20065;-48
2022/04/15 00:27:04;;;;;;;6.32;2.70;;;14.20;89.30;;;;;;5030940;28;20041;-49
2022/04/15 00:30:09;;;;;;;3.72;2.20;;;14.10;90.10;;;;;;5029926;28;20038;-48
2022/04/15 00:33:13;;;;;;;4.75;2.35;;;14.10;89.50;;;;;;5031124;28;20484;-48
2022/04/15 00:36:17;;;;;;;5.63;2.10;;;14.00;89.60;;;;;;5030259;28;20048;-49
2022/04/15 00:39:21;;;;;;;5.25;2.00;;;13.90;89.90;;;;;;5030842;28;20053;-47
2022/04/15 00:42:26;;;;;;;5.22;2.40;;;13.90;89.70;;;;;;5030297;28;20042;-47
2022/04/15 00:45:29;;;;;;;4.53;2.60;;;14.00;89.80;;;;;;5030542;28;20033;-47
2022/04/15 00:48:35;;;;;;;5.90;2.33;;;14.00;89.70;;;;;;5030434;28;20060;-47
2022/04/15 00:51:40;;;;;;;4.00;2.97;;;13.80;90.20;;;;;;5030397;28;20060;-48
2022/04/15 00:54:46;;;;;;;4.68;2.40;;;13.70;90.40;;;;;;5030062;28;20048;-49
2022/04/15 00:57:56;;;;;;;4.95;2.45;;;13.50;90.60;;;;;;5030298;28;20064;-48
2022/04/15 01:01:02;;;;;;;4.10;2.60;;;13.40;90.90;;;;;;5030004;28;20052;-48
2022/04/15 01:04:07;;;;;;;5.30;2.42;;;13.20;91.30;;;;;;5029998;28;20052;-49
2022/04/15 01:07:15;;;;;;;5.68;2.65;;;13.10;91.90;;;;;;5029569;28;20029;-48
2022/04/15 01:10:20;;;;;;;6.93;2.60;;;13.10;92.00;;;;;;5029653;28;20052;-48
2022/04/15 01:13:26;;;;;;;5.10;2.25;;;13.00;92.30;;;;;;5029994;28;20045;-48
2022/04/15 01:16:32;;;;;;;7.18;2.40;;;13.00;93.00;;;;;;5029618;28;20053;-47
2022/04/15 01:19:38;;;;;;;4.95;2.45;;;12.90;93.60;;;;;;5029715;28;20410;-49
2022/04/15 01:22:47;;;;;;;4.05;2.50;;;12.90;93.90;;;;;;5029698;28;20049;-48
2022/04/15 01:25:52;;;;;;;7.22;2.80;;;12.80;94.20;;;;;;5029584;28;20408;-52
2022/04/15 01:28:57;;;;;;;6.80;2.97;;;12.70;94.80;;;;;;5029381;28;20408;-53
2022/04/15 01:32:03;;;;;;;4.57;2.40;;;12.60;95.40;;;;;;5029838;28;20519;-54
2022/04/15 01:35:10;;;;;;;3.88;2.45;;;12.50;95.60;;;;;;5029276;28;20511;-53
2022/04/15 01:38:17;;;;;;;4.72;3.10;;;12.50;95.80;;;;;;5030132;28;20292;-47
2022/04/15 01:41:22;;;;;;;5.65;2.55;;;12.50;95.60;;;;;;5029469;28;20072;-54
2022/04/15 01:44:25;;;;;;;2.67;1.85;;;12.50;95.10;;;;;;5029389;28;20041;-54
2022/04/15 01:47:29;;;;;;;3.30;1.80;;;12.50;94.50;;;;;;5029435;28;20034;-54
2022/04/15 01:50:34;;;;;;;5.90;2.65;;;12.50;94.00;;;;;;5029100;28;20052;-54
2022/04/15 01:53:38;;;;;;;4.85;2.92;;;12.60;93.90;;;;;;5029441;28;20052;-51
2022/04/15 01:56:42;;;;;;;8.43;2.90;;;12.60;94.50;;;;;;5029487;28;20053;-51
2022/04/15 01:59:46;;;;;;;7.15;2.70;;;12.40;96.00;;;;;;5029072;28;20151;-48
2022/04/15 02:02:55;;;;;;;5.47;2.92;;;12.40;96.20;;;;;;5029087;28;20412;-53
2022/04/15 02:05:59;;;;;;;6.53;3.72;;;12.30;96.80;;;;;;5053331;22;20053;-56
2022/04/15 02:09:03;;;;;;;3.22;2.45;;;12.30;97.60;;;;;;5029329;28;20514;-53
2022/04/15 02:12:09;;;;;;;8.25;3.08;;;12.40;96.90;;;;;;5029303;28;20048;-50
2022/04/15 02:15:13;;;;;;;6.95;2.90;;;12.30;97.00;;;;;;5029271;28;20041;-50
2022/04/15 02:18:17;;;;;;;6.20;2.80;;;12.20;97.20;;;;;;5028824;28;20040;-50
2022/04/15 02:21:21;;;;;;;7.15;2.60;;;12.20;97.20;;;;;;5028910;28;20041;-50
2022/04/15 02:24:26;;;;;;;5.25;2.50;;;12.20;97.10;;;;;;5028960;28;20412;-52
2022/04/15 02:27:30;;;;;;;4.75;2.80;;;12.10;96.90;;;;;;5029014;28;20045;-53
2022/04/15 02:30:34;;;;;;;7.35;2.60;;;12.10;97.10;;;;;;5028923;28;20033;-50
2022/04/15 02:33:38;;;;;;;6.55;2.58;;;12.20;97.40;;;;;;5028914;28;20046;-50
2022/04/15 02:36:42;;;;;;;5.35;2.38;;;12.20;97.00;;;;;;5028370;28;20044;-51
2022/04/15 02:39:46;;;;;;;7.70;2.67;;;12.10;96.90;;;;;;5032422;28;20048;-54
2022/04/15 02:42:51;;;;;;;5.35;2.75;;;12.10;97.00;;;;;;5032292;28;20044;-52
2022/04/15 02:45:57;;;;;;;3.65;2.30;;;12.10;97.20;;;;;;5032503;28;20531;-52
2022/04/15 02:49:02;;;;;;;4.90;2.15;;;12.00;96.70;;;;;;5032511;28;20408;-54
2022/04/15 02:52:06;;;;;;;6.15;2.17;;;11.90;96.30;;;;;;5032365;28;20037;-52
2022/04/15 02:55:10;;;;;;;3.97;2.40;;;11.80;96.00;;;;;;5032476;28;20052;-55
2022/04/15 02:58:15;;;;;;;4.55;2.47;;;11.80;96.50;;;;;;5032250;28;20057;-54
2022/04/15 03:01:19;;;;;;;5.22;1.95;;;11.80;96.20;;;;;;5032031;28;20049;-50
2022/04/15 03:04:23;;;;;;;17.90;2.97;;;11.70;95.70;;;;;;5032343;28;20052;-51
2022/04/15 03:07:27;;;;;;;5.07;2.53;;;11.80;96.60;;;;;;5031848;28;20057;-52
2022/04/15 03:10:31;;;;;;;5.10;2.60;;;11.70;96.80;;;;;;5031959;28;20042;-52
2022/04/15 03:13:35;;;;;;;5.80;3.15;;;11.80;97.80;;;;;;5032192;28;20488;-54
2022/04/15 03:16:39;;;;;;;5.93;4.15;;;11.80;98.30;;;;;;5031729;28;20056;-53
2022/04/15 03:19:43;;;;;;;8.40;2.95;;;11.80;99.30;;;;;;5032067;28;20444;-50
2022/04/15 03:22:47;;;;;;;4.85;3.20;;;11.80;99.30;;;;;;5031583;28;20511;-52
2022/04/15 03:25:51;;;;;;;6.28;3.47;;;11.70;99.70;;;;;;5031798;28;20045;-51
2022/04/15 03:28:55;;;;;;;7.80;3.45;;;11.70;99.90;;;;;;5031826;28;20039;-50
2022/04/15 03:31:59;;;;;;;6.68;3.10;;;11.70;99.90;;;;;;5031438;28;20058;-53
2022/04/15 03:35:04;;;;;;;4.55;2.53;;;11.70;99.90;;;;;;5031328;28;20411;-50
2022/04/15 03:38:08;;;;;;;5.93;2.72;;;11.60;99.30;;;;;;5030575;28;20048;-54
2022/04/15 03:41:12;;;;;;;5.05;3.10;;;11.60;99.60;;;;;;5031254;28;20206;-52
2022/04/15 03:44:16;;;;;;;7.10;2.63;;;11.70;99.90;;;;;;5031712;28;20049;-53
2022/04/15 03:47:20;;;;;;;6.40;3.20;;;11.70;99.90;;;;;;5031234;28;20062;-53
2022/04/15 03:50:24;;;;;;;4.97;3.30;;;11.60;99.90;;;;;;5031335;28;20030;-51
2022/04/15 03:53:27;;;;;;;10.02;4.13;;;11.60;99.90;;;;;;5031207;28;20060;-50
2022/04/15 03:56:32;;;;;;;8.18;3.80;;;11.50;99.90;;;;;;5030609;28;20048;-51
2022/04/15 03:59:36;;;;;;;6.93;3.95;;;11.40;99.90;;;;;;5031276;28;20404;-51
2022/04/15 04:02:43;;;;;;;5.93;3.63;;;11.40;99.90;;;;;;5031052;28;20038;-51
2022/04/15 04:05:48;;;;;;;4.43;3.03;;;11.30;99.90;;;;;;5030476;28;20043;-50
2022/04/15 04:08:52;;;;;;;8.52;3.25;;;11.40;99.90;;;;;;5031114;28;20041;-51
2022/04/15 04:11:56;;;;;;;3.70;2.38;;;11.30;99.90;;;;;;5030436;28;20025;-51
2022/04/15 04:15:02;;;;;;;3.55;2.00;;;11.30;99.90;;;;;;5030989;28;20060;-51
2022/04/15 04:18:06;;;;;;;14.52;5.00;;;11.40;99.60;;;;;;5030623;28;20040;-51
2022/04/15 04:21:10;;;;;;;8.60;2.70;;;11.40;98.90;;;;;;5030530;28;20052;-53
2022/04/15 04:24:15;;;;;;;8.98;5.32;;;11.30;97.90;;;;;;5030658;28;20516;-51
2022/04/15 04:27:19;;;;;;;7.57;4.30;;;11.30;98.30;;;;;;5030484;28;20377;-53
2022/04/15 04:30:23;;;;;;;5.95;3.50;;;11.20;98.90;;;;;;5030538;28;20374;-55
2022/04/15 04:33:27;;;;;;;10.60;3.33;;;11.10;99.90;;;;;;5030200;28;20057;-53
2022/04/15 04:36:31;;;;;;;8.98;3.80;;;11.00;99.90;;;;;;5029683;28;20044;-54
2022/04/15 04:39:35;;;;;;;10.07;4.25;;;10.80;99.90;;;;;;5030395;28;20415;-51
2022/04/15 04:42:41;;;;;;;8.90;5.10;;;10.70;99.90;;;;;;5029910;28;20547;-51
2022/04/15 04:45:45;;;;;;;6.85;4.30;;;10.70;99.90;;;;;;5030322;28;20040;-51
2022/04/15 04:48:49;;;;;;;5.70;4.18;;;10.70;99.90;;;;;;5030114;28;20045;-50
2022/04/15 04:51:54;;;;;;;12.05;5.15;;;10.60;99.90;;;;;;5029868;28;20045;-51
2022/04/15 04:54:57;;;;;;;9.50;5.28;;;10.60;99.90;;;;;;5030250;28;20408;-50
2022/04/15 04:58:02;;;;;;;8.82;3.90;;;10.70;99.90;;;;;;5029683;28;20048;-54
2022/04/15 05:01:07;;;;;;;5.97;3.65;;;10.80;99.90;;;;;;5029804;28;20056;-51
2022/04/15 05:04:11;;;;;;;6.63;3.67;;;10.90;99.90;;;;;;5029943;28;20060;-52
2022/04/15 05:07:15;;;;;;;5.68;3.28;;;11.10;99.90;;;;;;5029804;28;20045;-50
2022/04/15 05:10:19;;;;;;;6.78;4.05;;;11.30;99.90;;;;;;5030276;28;20033;-53
2022/04/15 05:13:23;;;;;;;9.88;4.03;;;11.50;99.90;;;;;;5029740;28;20045;-54
2022/04/15 05:16:27;;;;;;;8.52;4.40;;;11.80;99.90;;;;;;5030068;28;20045;-54
2022/04/15 05:19:31;;;;;;;14.43;4.63;;;12.00;99.90;;;;;;5030080;28;20065;-57
2022/04/15 05:22:35;;;;;;;24.08;5.30;;;12.20;99.90;;;;;;5029425;28;20048;-53
2022/04/15 05:25:39;;;;;;;14.57;4.20;;;12.60;99.90;;;;;;5029674;28;20045;-54
2022/04/15 05:28:43;;;;;;;11.20;3.33;;;13.70;99.90;;;;;;5029958;28;20040;-56
2022/04/15 05:31:47;;;;;;;6.03;2.70;;;14.90;99.90;;;;;;5029554;28;20053;-57
2022/04/15 05:34:51;;;;;;;5.20;2.80;;;16.20;98.60;;;;;;5029604;28;20045;-55
2022/04/15 05:37:55;;;;;;;4.80;3.05;;;17.30;95.80;;;;;;5029591;28;20037;-51
2022/04/15 05:40:59;;;;;;;13.15;3.80;;;18.20;94.10;;;;;;5029786;28;20052;-51
2022/04/15 05:44:04;;;;;;;6.70;3.83;;;18.80;92.50;;;;;;5029288;28;20052;-52
2022/04/15 05:47:08;;;;;;;8.23;3.70;;;18.40;92.30;;;;;;5029218;28;20528;-55
2022/04/15 05:50:12;;;;;;;8.40;3.78;;;16.80;94.70;;;;;;5029417;28;20511;-54
2022/04/15 05:53:16;;;;;;;10.13;4.05;;;16.90;95.80;;;;;;5029197;28;20046;-54
2022/04/15 05:56:19;;;;;;;6.38;3.55;;;18.30;95.10;;;;;;5029277;28;20523;-51
2022/04/15 05:59:23;;;;;;;8.35;3.40;;;19.50;93.80;;;;;;5029359;28;20567;-51
2022/04/15 06:02:27;;;;;;;7.75;3.50;;;20.60;91.90;;;;;;5028956;28;20048;-49
2022/04/15 06:05:31;;;;;;;9.40;3.92;;;21.10;91.30;;;;;;5029207;28;20041;-50
2022/04/15 06:08:37;;;;;;;8.40;3.08;;;21.90;90.40;;;;;;5029594;28;20037;-54
2022/04/15 06:11:41;;;;;;;15.30;3.75;;;22.80;87.30;;;;;;5029442;28;20416;-52
2022/04/15 06:14:46;;;;;;;7.00;3.05;;;23.30;85.20;;;;;;5032964;28;20048;-54
2022/04/15 06:17:50;;;;;;;7.85;4.50;;;23.80;83.10;;;;;;5032970;28;20400;-51
2022/04/15 06:20:54;;;;;;;17.58;9.15;;;24.20;81.50;;;;;;5033190;28;20029;-55
2022/04/15 06:23:59;;;;;;;11.45;8.00;;;24.40;80.60;;;;;;5033301;28;20436;-53
2022/04/15 06:27:03;;;;;;;10.07;6.18;;;24.80;78.40;;;;;;5033152;28;20041;-53
2022/04/15 06:30:08;;;;;;;9.60;5.50;;;25.40;76.50;;;;;;5032992;28;20507;-52
2022/04/15 06:33:15;;;;;;;8.93;4.22;;;25.40;75.90;;;;;;5032688;28;20073;-53
2022/04/15 06:36:20;;;;;;;7.45;3.70;;;22.80;78.90;;;;;;5032301;28;20525;-54
2022/04/15 06:39:25;;;;;;;6.50;3.55;;;22.00;80.90;;;;;;5032697;28;20053;-54
2022/04/15 06:42:30;;;;;;;5.70;3.40;;;20.40;84.80;;;;;;5032452;28;20033;-53
2022/04/15 06:45:35;;;;;;;6.45;3.97;;;20.10;85.00;;;;;;5032563;28;20045;-54
2022/04/15 06:48:39;;;;;;;8.35;4.15;;;20.60;86.10;;;;;;5032604;28;20044;-54
2022/04/15 06:51:42;;;;;;;6.47;4.00;;;21.10;85.40;;;;;;5032421;28;20044;-52
2022/04/15 06:54:47;;;;;;;9.45;4.00;;;21.90;83.40;;;;;;5032240;28;20508;-51
2022/04/15 06:57:51;;;;;;;8.43;3.72;;;21.50;83.60;;;;;;5032176;28;20499;-54
2022/04/15 07:00:54;;;;;;;6.88;3.50;;;21.30;83.80;;;;;;5032406;28;20112;-55
2022/04/15 07:03:58;;;;;;;5.90;3.67;;;21.80;83.80;;;;;;5031863;28;20048;-54
2022/04/15 07:07:02;;;;;;;6.00;3.97;;;22.50;82.40;;;;;;5032200;28;20046;-54
2022/04/15 07:10:08;;;;;;;7.38;3.25;;;23.60;81.40;;;;;;5032303;28;20410;-52
2022/04/15 07:13:12;;;;;;;12.35;3.88;;;23.70;79.60;;;;;;5032160;28;20603;-53
2022/04/15 07:16:16;;;;;;;5.22;3.20;;;24.40;79.10;;;;;;5032120;28;20507;-52
2022/04/15 07:19:20;;;;;;;7.70;4.07;;;24.60;79.20;;;;;;5032300;28;20064;-55
2022/04/15 07:22:24;;;;;;;11.77;4.00;;;24.50;77.90;;;;;;5032189;28;20037;-56
2022/04/15 07:25:28;;;;;;;5.78;3.63;;;26.10;77.30;;;;;;5032103;28;20045;-53
2022/04/15 07:28:33;;;;;;;8.38;3.97;;;25.10;74.40;;;;;;5032212;28;20046;-52
2022/04/15 07:31:37;;;;;;;6.22;4.07;;;26.20;74.20;;;;;;5032140;28;20041;-54
2022/04/15 07:34:41;;;;;;;8.98;4.72;;;27.10;72.80;;;;;;5031668;28;20073;-55
2022/04/15 07:37:44;;;;;;;10.48;6.25;;;28.50;70.80;;;;;;5031948;28;20037;-55
2022/04/15 07:40:49;;;;;;;11.27;5.35;;;28.80;71.00;;;;;;5032238;28;20052;-55
2022/04/15 07:43:53;;;;;;;10.38;6.78;;;29.90;67.70;;;;;;5031707;28;20041;-54
2022/04/15 07:46:57;;;;;;;8.05;5.78;;;28.60;69.30;;;;;;5031528;28;20049;-56
2022/04/15 07:50:01;;;;;;;15.10;7.30;;;29.20;68.40;;;;;;5031813;28;20536;-55
2022/04/15 07:53:05;;;;;;;10.35;6.78;;;27.80;69.60;;;;;;5031412;28;20107;-54
2022/04/15 07:56:09;;;;;;;10.45;6.85;;;29.40;68.60;;;;;;5031553;28;20056;-55
2022/04/15 07:59:13;;;;;;;12.88;7.07;;;30.30;66.50;;;;;;5031483;28;20048;-57
2022/04/15 08:02:18;;;;;;;10.98;6.05;;;29.70;67.00;;;;;;5031215;28;20052;-51
2022/04/15 08:05:22;;;;;;;8.93;5.93;;;29.90;67.30;;;;;;5031042;28;20404;-51
2022/04/15 08:08:26;;;;;;;9.25;5.82;;;31.80;63.10;;;;;;5053004;22;20533;-52
2022/04/15 08:11:31;;;;;;;13.05;7.25;;;31.70;62.60;;;;;;5031041;28;20065;-54
2022/04/15 08:14:35;;;;;;;13.38;7.47;;;28.80;65.60;;;;;;5030628;28;20052;-53
2022/04/15 08:17:39;;;;;;;14.65;8.20;;;30.20;65.20;;;;;;5030809;28;20040;-53
2022/04/15 08:20:44;;;;;;;13.13;7.72;;;26.40;68.00;;;;;;5030839;28;20048;-54
2022/04/15 08:23:48;;;;;;;14.35;6.72;;;28.30;67.90;;;;;;5030525;28;20056;-54
2022/04/15 08:26:56;;;;;;;9.48;6.53;;;31.00;65.30;;;;;;5030314;28;20507;-50
2022/04/15 08:30:00;;;;;;;9.75;4.88;;;33.30;62.50;;;;;;5030494;28;20052;-51
2022/04/15 08:33:06;;;;;;;8.10;3.70;;;32.90;61.30;;;;;;5030634;28;20056;-53
2022/04/15 08:36:10;;;;;;;7.22;3.25;;;30.70;59.70;;;;;;5029288;28;20044;-54
2022/04/15 08:39:14;;;;;;;4.18;3.10;;;30.90;60.40;;;;;;5030463;28;20057;-51
2022/04/15 08:42:20;;;;;;;9.05;3.00;;;29.90;60.60;;;;;;5030345;28;20046;-53
2022/04/15 08:45:28;;;;;;;9.02;3.20;;;30.50;60.40;;;;;;5030094;28;20041;-53
2022/04/15 08:48:33;;;;;;;5.88;3.17;;;32.70;60.20;;;;;;5030374;28;20042;-53
2022/04/15 08:51:38;;;;;;;6.28;3.15;;;27.30;60.30;;;;;;5030267;28;20041;-52
2022/04/15 08:54:44;;;;;;;5.93;3.08;;;27.90;63.40;;;;;;5030240;28;20037;-54
2022/04/15 08:57:49;;;;;;;10.02;3.15;;;31.10;60.70;;;;;;5030294;28;20053;-53
2022/04/15 09:00:54;;;;;;;5.50;2.88;;;33.80;58.20;;;;;;5030400;28;20626;-49
2022/04/15 09:03:59;;;;;;;5.88;3.22;;;33.60;56.70;;;;;;5029693;28;20525;-51
2022/04/15 09:07:03;;;;;;;3.30;2.30;;;35.20;54.90;;;;;;5029867;28;20135;-52
2022/04/15 09:10:10;;;;;;;7.13;2.92;;;33.40;54.20;;;;;;5029659;28;20052;-50
2022/04/15 09:13:21;;;;;;;3.70;2.30;;;34.00;55.40;;;;;;5029644;28;20037;-54
2022/04/15 09:16:25;;;;;;;5.35;2.78;;;34.40;53.60;;;;;;5029659;28;20026;-54
2022/04/15 09:19:29;;;;;;;6.13;2.53;;;36.40;54.00;;;;;;5029756;28;20041;-52
2022/04/15 09:22:33;;;;;;;6.60;2.60;;;33.50;54.00;;;;;;5029566;28;20044;-48
2022/04/15 09:25:39;;;;;;;5.43;2.83;;;32.20;54.60;;;;;;5029499;28;20060;-53
2022/04/15 09:28:43;;;;;;;5.40;2.70;;;32.10;54.50;;;;;;5029786;28;20401;-50
2022/04/15 09:31:47;;;;;;;5.85;2.63;;;30.40;54.70;;;;;;5029693;28;20029;-52
2022/04/15 09:34:57;;;;;;;4.18;2.22;;;31.40;54.00;;;;;;5029664;28;20041;-54
2022/04/15 09:38:03;;;;;;;4.07;2.30;;;35.20;52.50;;;;;;5029586;28;20057;-51
2022/04/15 09:41:21;;;;;;;3.67;2.20;;;37.50;51.90;;;;;;5029777;28;20429;-53
2022/04/15 09:44:31;;;;;;;5.05;2.20;;;35.00;52.60;;;;;;5029390;28;20044;-50
2022/04/15 09:47:35;;;;;;;5.10;2.50;;;38.00;50.90;;;;;;5032713;28;20041;-53
2022/04/15 09:50:44;;;;;;;4.22;2.47;;;35.10;50.40;;;;;;5033799;28;20040;-51
2022/04/15 09:53:51;;;;;;;12.20;2.47;;;35.80;49.40;;;;;;5033542;28;20048;-54
2022/04/15 09:56:58;;;;;;;5.40;2.35;;;33.60;47.70;;;;;;5033155;28;20051;-52
2022/04/15 10:00:03;;;;;;;4.63;2.13;;;30.90;50.70;;;;;;5033391;28;20053;-51
2022/04/15 10:03:26;;;;;;;3.50;2.20;;;34.80;50.80;;;;;;5033220;28;20523;-49
2022/04/15 10:06:31;;;;;;;2.65;1.85;;;38.60;48.30;;;;;;5033026;28;20379;-53
2022/04/15 10:09:38;;;;;;;2.45;1.40;;;38.50;46.40;;;;;;5033392;28;20045;-52
2022/04/15 10:12:43;;;;;;;3.30;1.73;;;39.90;45.60;;;;;;5032957;28;20052;-51
2022/04/15 10:15:49;;;;;;;4.38;2.08;;;37.50;44.50;;;;;;5025319;28;20060;-48
2022/04/15 10:18:53;;;;;;;5.25;1.88;;;37.90;44.90;;;;;;5033356;28;20034;-51
2022/04/15 10:21:57;;;;;;;3.60;1.60;;;40.20;44.50;;;;;;5033371;28;20048;-53
2022/04/15 10:25:01;;;;;;;2.70;1.80;;;40.40;42.80;;;;;;5033355;28;20048;-50
2022/04/15 10:28:19;;;;;;;2.78;1.65;;;36.80;43.10;;;;;;5033205;28;20042;-50
2022/04/15 10:31:26;;;;;;;2.55;1.65;;;39.10;44.00;;;;;;5033166;28;20037;-51
2022/04/15 10:34:45;;;;;;;3.30;1.90;;;37.40;42.80;;;;;;5032998;28;20042;-49
2022/04/15 10:38:01;;;;;;;6.32;2.22;;;36.50;43.80;;;;;;5032230;28;20052;-53
2022/04/15 10:41:15;;;;;;;3.10;2.20;;;36.70;44.30;;;;;;5032730;28;20108;-52
2022/04/15 10:44:27;;;;;;;8.27;2.20;;;39.60;43.60;;;;;;5032404;28;20115;-54
2022/04/15 10:47:32;;;;;;;3.38;1.60;;;36.20;42.90;;;;;;5031926;28;20033;-51
2022/04/15 10:50:39;;;;;;;1.98;1.40;;;37.60;43.00;;;;;;5032513;28;20041;-52
2022/04/15 10:53:45;;;;;;;3.20;1.42;;;39.00;42.80;;;;;;5032232;28;20042;-54
2022/04/15 10:57:03;;;;;;;2.65;1.25;;;38.70;41.80;;;;;;5032054;28;20044;-51
2022/04/15 11:03:42;;;;;;;4.85;1.25;;;38.50;43.20;;;;;;5032404;28;20045;-53
2022/04/15 11:06:46;;;;;;;3.42;1.67;;;33.60;44.00;;;;;;5031809;28;20033;-54
2022/04/15 11:09:50;;;;;;;3.72;1.50;;;35.50;45.70;;;;;;5032389;28;20052;-54
2022/04/15 11:12:54;;;;;;;2.88;1.27;;;37.60;44.50;;;;;;5031902;28;20504;-53
2022/04/15 11:15:59;;;;;;;5.95;1.80;;;33.80;44.70;;;;;;5031760;28;20040;-49
2022/04/15 11:19:04;;;;;;;7.00;1.55;;;30.80;45.80;;;;;;5032111;28;20038;-53
2022/04/15 11:22:09;;;;;;;2.78;1.30;;;34.30;45.70;;;;;;5032083;28;20045;-53
2022/04/15 11:25:15;;;;;;;2.67;1.17;;;33.10;45.80;;;;;;5031939;28;20037;-53
2022/04/15 11:28:19;;;;;;;5.68;1.80;;;36.40;45.20;;;;;;5031359;28;20029;-54
2022/04/15 11:31:28;;;;;;;5.93;1.70;;;35.30;46.40;;;;;;5032105;28;20048;-49
2022/04/15 11:34:33;;;;;;;4.88;1.98;;;35.10;45.30;;;;;;5031536;28;20060;-50
2022/04/15 11:37:38;;;;;;;2.92;1.60;;;36.20;44.80;;;;;;5031532;28;20438;-51
2022/04/15 11:40:43;;;;;;;2.42;1.70;;;35.80;44.40;;;;;;5031474;28;20404;-53
2022/04/15 11:44:01;;;;;;;4.97;1.35;;;38.10;44.40;;;;;;5031492;28;20049;-54
2022/04/15 11:47:19;;;;;;;4.07;1.40;;;36.90;44.10;;;;;;5031168;28;20052;-48
2022/04/15 11:50:25;;;;;;;2.17;1.30;;;37.60;43.90;;;;;;5031445;28;20054;-49
2022/04/15 11:53:28;;;;;;;2.80;1.20;;;36.70;44.50;;;;;;5031453;28;20046;-53
2022/04/15 11:56:35;;;;;;;5.15;1.25;;;39.00;44.60;;;;;;5031428;28;20396;-54
2022/04/15 11:59:41;;;;;;;2.22;1.20;;;39.10;43.50;;;;;;5031566;28;20048;-53
2022/04/15 12:02:46;;;;;;;2.78;1.40;;;39.60;44.00;;;;;;5031493;28;20040;-53
2022/04/15 12:05:52;;;;;;;4.13;1.30;;;38.50;43.10;;;;;;5031501;28;20052;-52
2022/04/15 12:08:58;;;;;;;2.85;1.33;;;38.50;42.20;;;;;;5030498;28;20049;-52
2022/04/15 12:12:02;;;;;;;4.38;1.50;;;32.80;45.20;;;;;;5030994;28;20503;-49
2022/04/15 12:15:08;;;;;;;2.90;1.17;;;34.90;46.00;;;;;;5030783;28;20052;-50
2022/04/15 12:18:13;;;;;;;2.38;1.15;;;36.40;44.40;;;;;;5030537;28;20041;-52
2022/04/15 12:21:17;;;;;;;4.10;1.50;;;34.20;43.80;;;;;;5031001;28;20034;-53
2022/04/15 12:24:22;;;;;;;4.15;1.65;;;35.90;45.30;;;;;;5030766;28;20041;-51
2022/04/15 12:27:34;;;;;;;2.67;1.35;;;37.70;44.50;;;;;;5030456;28;20613;-49
2022/04/15 12:30:39;;;;;;;3.15;1.48;;;33.80;43.90;;;;;;5030949;28;20110;-48
2022/04/15 12:33:46;;;;;;;2.55;1.30;;;35.90;44.50;;;;;;5030489;28;20045;-51
2022/04/15 12:36:51;;;;;;;2.88;1.30;;;34.40;44.00;;;;;;5030593;28;20041;-52
2022/04/15 12:39:54;;;;;;;4.82;1.38;;;34.10;44.30;;;;;;5031131;28;20044;-53
2022/04/15 12:43:11;;;;;;;4.53;1.30;;;37.00;43.50;;;;;;5030581;28;20044;-54
2022/04/15 12:46:16;;;;;;;2.38;1.55;;;37.70;42.70;;;;;;5030512;28;20404;-49
2022/04/15 12:49:29;;;;;;;1.85;1.33;;;36.80;43.00;;;;;;5030138;28;20424;-52
2022/04/15 12:52:33;;;;;;;3.22;1.25;;;35.50;43.70;;;;;;5030158;28;20041;-50
2022/04/15 12:55:37;;;;;;;3.58;1.50;;;32.10;43.10;;;;;;5030292;28;20037;-52
2022/04/15 12:58:53;;;;;;;2.25;1.20;;;34.30;43.80;;;;;;5029812;28;20040;-47
2022/04/15 13:01:56;;;;;;;3.08;1.20;;;36.50;42.80;;;;;;5030471;28;20400;-48
2022/04/15 13:05:00;;;;;;;3.95;1.50;;;37.70;43.90;;;;;;5030276;28;20049;-48
2022/04/15 13:08:04;;;;;;;5.68;1.40;;;38.50;42.40;;;;;;5029614;28;20040;-53
2022/04/15 13:11:09;;;;;;;2.85;1.30;;;38.00;42.10;;;;;;5030226;28;20052;-54
2022/04/15 13:14:12;;;;;;;2.55;1.38;;;34.30;42.30;;;;;;5029740;28;20041;-54
2022/04/15 13:17:16;;;;;;;2.22;1.20;;;32.10;43.10;;;;;;5029470;28;20034;-53
2022/04/15 13:20:20;;;;;;;3.70;1.58;;;33.20;44.20;;;;;;5029888;28;20041;-50
2022/04/15 13:23:24;;;;;;;3.53;1.48;;;33.50;45.80;;;;;;5029686;28;20409;-52
2022/04/15 13:26:28;;;;;;;2.10;1.40;;;35.10;45.00;;;;;;5029545;28;20049;-54
2022/04/15 13:29:32;;;;;;;2.95;1.50;;;35.40;44.60;;;;;;5029535;28;20041;-51
2022/04/15 13:32:37;;;;;;;6.13;1.67;;;33.60;44.90;;;;;;5029174;28;20057;-53
2022/04/15 13:35:41;;;;;;;4.55;1.60;;;34.90;44.80;;;;;;5029441;28;20041;-52
2022/04/15 13:38:46;;;;;;;2.22;1.30;;;35.30;43.70;;;;;;5029420;28;20405;-55
2022/04/15 13:41:50;;;;;;;7.10;1.95;;;36.20;44.90;;;;;;5029673;28;20061;-52
2022/04/15 13:44:55;;;;;;;2.42;1.13;;;36.50;43.40;;;;;;5029955;28;20037;-48
2022/04/15 13:47:59;;;;;;;3.40;1.70;;;36.40;43.30;;;;;;5029551;28;20029;-49
2022/04/15 13:51:03;;;;;;;3.97;1.67;;;36.80;43.50;;;;;;5029970;28;20484;-50
2022/04/15 13:57:30;;;;;;;6.50;1.77;;;35.40;45.80;;;;;;5029141;28;20040;-53
2022/04/15 14:00:34;;;;;;;5.05;1.65;;;34.40;45.80;;;;;;5029088;28;20040;-50
2022/04/15 14:03:39;;;;;;;3.28;1.20;;;34.00;45.90;;;;;;5029385;28;20543;-47
2022/04/15 14:06:45;;;;;;;4.22;1.20;;;34.20;44.20;;;;;;5029084;28;20041;-47
2022/04/15 14:09:49;;;;;;;4.03;1.48;;;34.00;44.70;;;;;;5051153;23;20045;-53
2022/04/15 14:12:53;;;;;;;2.25;1.20;;;32.40;44.20;;;;;;5029415;28;20048;-54
2022/04/15 14:15:57;;;;;;;2.35;1.20;;;32.90;47.80;;;;;;5029453;28;20052;-51
2022/04/15 14:19:02;;;;;;;1.77;1.23;;;33.20;46.80;;;;;;5029023;28;20052;-54
2022/04/15 14:22:07;;;;;;;2.30;1.20;;;33.20;47.10;;;;;;5029280;28;20037;-54
2022/04/15 14:25:11;;;;;;;2.75;1.40;;;33.00;47.10;;;;;;5029297;28;20041;-51
2022/04/15 14:28:15;;;;;;;4.97;1.55;;;32.70;46.70;;;;;;5029125;28;20511;-52
2022/04/15 14:31:20;;;;;;;4.78;1.38;;;32.30;48.70;;;;;;5029102;28;20064;-50
2022/04/15 14:34:25;;;;;;;3.28;1.50;;;31.60;48.20;;;;;;5031786;28;20042;-52
2022/04/15 14:37:28;;;;;;;2.65;1.25;;;31.30;49.20;;;;;;5032995;28;20515;-53
2022/04/15 14:40:33;;;;;;;1.73;1.20;;;31.00;49.30;;;;;;5032909;28;20029;-54
2022/04/15 14:43:39;;;;;;;4.38;1.35;;;30.90;49.30;;;;;;5033047;28;20060;-54
2022/04/15 14:46:43;;;;;;;9.10;1.45;;;30.70;49.40;;;;;;5033165;28;20044;-52
2022/04/15 14:49:48;;;;;;;3.28;1.35;;;30.70;49.10;;;;;;5032785;28;20049;-51
2022/04/15 14:52:52;;;;;;;3.90;1.20;;;30.60;49.50;;;;;;5032926;28;20049;-51
2022/04/15 14:55:57;;;;;;;3.17;1.30;;;30.50;50.00;;;;;;5032836;28;20037;-52
2022/04/15 14:59:01;;;;;;;5.53;1.98;;;30.30;50.10;;;;;;5032654;28;20509;-52
2022/04/15 15:02:07;;;;;;;3.15;1.67;;;29.90;49.80;;;;;;5032664;28;20056;-51
2022/04/15 15:05:10;;;;;;;4.20;1.40;;;29.80;49.80;;;;;;5032893;28;20040;-51
2022/04/15 15:08:15;;;;;;;2.67;1.40;;;29.80;50.30;;;;;;5032622;28;20397;-51
2022/04/15 15:11:19;;;;;;;1.90;1.27;;;29.50;49.80;;;;;;5032433;28;20041;-54
2022/04/15 15:14:23;;;;;;;5.53;1.48;;;29.30;50.90;;;;;;5032209;28;20037;-55
2022/04/15 15:17:27;;;;;;;2.80;1.10;;;29.20;50.50;;;;;;5032339;28;20037;-51
2022/04/15 15:20:32;;;;;;;6.97;1.40;;;29.00;50.60;;;;;;5032115;28;20056;-52
2022/04/15 15:29:48;;;;;;;4.10;1.50;;;29.00;49.80;;;;;;5032154;28;20048;-51
2022/04/15 15:30:45;;;;;;;6.07;1.20;;;28.40;50.30;;;;;;5031750;28;20058;-51
2022/04/15 15:33:49;;;;;;;2.65;1.42;;;28.20;50.00;;;;;;5031552;28;20036;-53
2022/04/15 15:36:53;;;;;;;4.03;1.67;;;28.10;50.80;;;;;;5031209;28;20034;-53
2022/04/15 15:39:57;;;;;;;4.93;1.35;;;27.80;50.60;;;;;;5031440;28;20037;-53
2022/04/15 15:43:06;;;;;;;2.72;1.10;;;27.70;51.40;;;;;;5031428;28;20044;-53
2022/04/15 15:46:10;;;;;;;3.35;1.50;;;27.60;51.80;;;;;;5031310;28;20037;-57
2022/04/15 15:49:15;;;;;;;4.10;1.30;;;27.50;51.50;;;;;;5031315;28;20037;-52
2022/04/15 15:52:19;;;;;;;4.75;1.40;;;27.50;51.90;;;;;;5031613;28;20056;-54
2022/04/15 15:55:24;;;;;;;3.65;1.58;;;27.40;50.20;;;;;;5031173;28;20037;-56
2022/04/15 15:58:28;;;;;;;3.65;1.20;;;27.30;50.90;;;;;;5031325;28;20046;-56
2022/04/15 16:01:32;;;;;;;7.97;1.95;;;27.10;50.70;;;;;;5031150;28;20033;-50
2022/04/15 16:04:37;;;;;;;2.60;1.48;;;27.00;50.80;;;;;;5031243;28;20040;-56
2022/04/15 16:07:41;;;;;;;2.15;1.30;;;26.80;50.30;;;;;;5030962;28;20048;-54
2022/04/15 16:10:46;;;;;;;2.78;1.40;;;26.70;50.60;;;;;;5030929;28;20404;-51
2022/04/15 16:13:53;;;;;;;3.53;1.30;;;26.50;50.20;;;;;;5031097;28;20045;-56